sensor_id;sensor_type;location;lat;lon;timestamp;temperature;humidity
23087;DHT22;11712;51.134;4.156;2023-03-01T00:00:39;2.50;99.90
23087;DHT22;11712;51.134;4.156;2023-03-01T00:03:05;2.50;99.90
23087;DHT22;11712;51.134;4.156;2023-03-01T00:05:30;2.50;99.90
23087;DHT22;11712;51.134;4.156;2023-03-01T00:07:56;2.40;99.90
23087;DHT22;11712;51.134;4.156;2023-03-01T00:10:22;2.40;99.90
23087;DHT22;11712;51.134;4.156;2023-03-01T00:12:47;2.40;99.90
23087;DHT22;11712;51.134;4.156;2023-03-01T00:15:13;2.40;99.90
23087;DHT22;11712;51.134;4.156;2023-03-01T00:17:38;2.50;99.90
23087;DHT22;11712;51.134;4.156;2023-03-01T00:20:04;2.40;99.90
23087;DHT22;11712;51.134;4.156;2023-03-01T00:22:36;2.40;99.90
23087;DHT22;11712;51.134;4.156;2023-03-01T00:25:02;2.40;99.90
23087;DHT22;11712;51.134;4.156;2023-03-01T00:27:28;2.40;99.90
23087;DHT22;11712;51.134;4.156;2023-03-01T00:29:53;2.30;99.90
23087;DHT22;11712;51.134;4.156;2023-03-01T00:32:19;2.30;99.90
23087;DHT22;11712;51.134;4.156;2023-03-01T00:34:45;2.30;99.90
23087;DHT22;11712;51.134;4.156;2023-03-01T00:37:20;2.30;99.90
23087;DHT22;11712;51.134;4.156;2023-03-01T00:39:46;2.30;99.90
23087;DHT22;11712;51.134;4.156;2023-03-01T00:42:12;2.30;99.90
23087;DHT22;11712;51.134;4.156;2023-03-01T00:44:38;2.30;99.90
23087;DHT22;11712;51.134;4.156;2023-03-01T00:47:03;2.30;99.90
23087;DHT22;11712;51.134;4.156;2023-03-01T00:49:29;2.30;99.90
23087;DHT22;11712;51.134;4.156;2023-03-01T00:51:54;2.30;99.90
23087;DHT22;11712;51.134;4.156;2023-03-01T00:54:20;2.20;99.90
23087;DHT22;11712;51.134;4.156;2023-03-01T00:56:46;2.20;99.90
23087;DHT22;11712;51.134;4.156;2023-03-01T00:59:11;2.20;99.90
23087;DHT22;11712;51.134;4.156;2023-03-01T01:01:37;2.10;99.90
23087;DHT22;11712;51.134;4.156;2023-03-01T01:04:09;2.20;99.90
23087;DHT22;11712;51.134;4.156;2023-03-01T01:06:40;2.10;99.90
23087;DHT22;11712;51.134;4.156;2023-03-01T01:09:15;2.10;99.90
23087;DHT22;11712;51.134;4.156;2023-03-01T01:11:49;2.00;99.90
23087;DHT22;11712;51.134;4.156;2023-03-01T01:14:16;2.00;99.90
23087;DHT22;11712;51.134;4.156;2023-03-01T01:16:42;1.90;99.90
23087;DHT22;11712;51.134;4.156;2023-03-01T01:19:10;2.00;99.90
23087;DHT22;11712;51.134;4.156;2023-03-01T01:23:41;2.00;99.90
23087;DHT22;11712;51.134;4.156;2023-03-01T01:26:16;1.90;99.90
23087;DHT22;11712;51.134;4.156;2023-03-01T01:28:42;1.90;99.90
23087;DHT22;11712;51.134;4.156;2023-03-01T01:31:08;1.90;99.90
23087;DHT22;11712;51.134;4.156;2023-03-01T01:33:35;1.90;99.90
23087;DHT22;11712;51.134;4.156;2023-03-01T01:36:01;1.80;99.90
23087;DHT22;11712;51.134;4.156;2023-03-01T01:38:27;1.80;99.90
23087;DHT22;11712;51.134;4.156;2023-03-01T01:40:52;1.80;99.90
23087;DHT22;11712;51.134;4.156;2023-03-01T01:45:49;1.70;99.90
23087;DHT22;11712;51.134;4.156;2023-03-01T01:48:20;1.80;99.90
23087;DHT22;11712;51.134;4.156;2023-03-01T01:50:54;1.80;99.90
23087;DHT22;11712;51.134;4.156;2023-03-01T01:53:21;1.80;99.90
23087;DHT22;11712;51.134;4.156;2023-03-01T01:55:51;1.90;99.90
23087;DHT22;11712;51.134;4.156;2023-03-01T01:58:19;1.90;99.90
23087;DHT22;11712;51.134;4.156;2023-03-01T02:00:45;1.80;99.90
23087;DHT22;11712;51.134;4.156;2023-03-01T02:03:16;1.80;99.90
23087;DHT22;11712;51.134;4.156;2023-03-01T02:08:16;1.80;99.90
23087;DHT22;11712;51.134;4.156;2023-03-01T02:10:45;1.80;99.90
23087;DHT22;11712;51.134;4.156;2023-03-01T02:13:12;1.70;99.90
23087;DHT22;11712;51.134;4.156;2023-03-01T02:15:39;1.70;99.90
23087;DHT22;11712;51.134;4.156;2023-03-01T02:18:07;1.70;99.90
23087;DHT22;11712;51.134;4.156;2023-03-01T02:23:13;1.80;99.90
23087;DHT22;11712;51.134;4.156;2023-03-01T02:25:50;1.80;99.90
23087;DHT22;11712;51.134;4.156;2023-03-01T02:28:31;1.70;99.90
23087;DHT22;11712;51.134;4.156;2023-03-01T02:30:57;1.70;99.90
23087;DHT22;11712;51.134;4.156;2023-03-01T02:33:43;1.60;99.90
23087;DHT22;11712;51.134;4.156;2023-03-01T02:36:12;1.60;99.90
23087;DHT22;11712;51.134;4.156;2023-03-01T02:38:41;1.60;99.90
23087;DHT22;11712;51.134;4.156;2023-03-01T02:41:08;1.60;99.90
23087;DHT22;11712;51.134;4.156;2023-03-01T02:43:34;1.60;99.90
23087;DHT22;11712;51.134;4.156;2023-03-01T02:46:26;1.70;99.90
23087;DHT22;11712;51.134;4.156;2023-03-01T02:48:54;1.60;99.90
23087;DHT22;11712;51.134;4.156;2023-03-01T02:54:30;1.60;99.90
23087;DHT22;11712;51.134;4.156;2023-03-01T02:56:58;1.60;99.90
23087;DHT22;11712;51.134;4.156;2023-03-01T02:59:31;1.50;99.90
23087;DHT22;11712;51.134;4.156;2023-03-01T03:01:57;1.50;99.90
23087;DHT22;11712;51.134;4.156;2023-03-01T03:04:22;1.50;99.90
23087;DHT22;11712;51.134;4.156;2023-03-01T03:06:50;1.40;99.90
23087;DHT22;11712;51.134;4.156;2023-03-01T03:09:17;1.40;99.90
23087;DHT22;11712;51.134;4.156;2023-03-01T03:11:43;1.30;99.90
23087;DHT22;11712;51.134;4.156;2023-03-01T03:14:12;1.30;99.90
23087;DHT22;11712;51.134;4.156;2023-03-01T03:16:43;1.30;99.90
23087;DHT22;11712;51.134;4.156;2023-03-01T03:19:11;1.20;99.90
23087;DHT22;11712;51.134;4.156;2023-03-01T03:21:37;1.20;99.90
23087;DHT22;11712;51.134;4.156;2023-03-01T03:24:03;1.20;99.90
23087;DHT22;11712;51.134;4.156;2023-03-01T03:26:29;1.30;99.90
23087;DHT22;11712;51.134;4.156;2023-03-01T03:28:55;1.20;99.90
23087;DHT22;11712;51.134;4.156;2023-03-01T03:31:21;1.10;99.90
23087;DHT22;11712;51.134;4.156;2023-03-01T03:33:46;1.10;99.90
23087;DHT22;11712;51.134;4.156;2023-03-01T03:36:21;1.10;99.90
23087;DHT22;11712;51.134;4.156;2023-03-01T03:38:47;1.00;99.90
23087;DHT22;11712;51.134;4.156;2023-03-01T03:41:13;1.10;99.90
23087;DHT22;11712;51.134;4.156;2023-03-01T03:43:40;1.10;99.90
23087;DHT22;11712;51.134;4.156;2023-03-01T03:47:42;1.10;99.90
23087;DHT22;11712;51.134;4.156;2023-03-01T03:50:09;1.00;99.90
23087;DHT22;11712;51.134;4.156;2023-03-01T03:52:35;1.00;99.90
23087;DHT22;11712;51.134;4.156;2023-03-01T03:55:01;1.10;99.90
23087;DHT22;11712;51.134;4.156;2023-03-01T03:57:26;1.10;99.90
23087;DHT22;11712;51.134;4.156;2023-03-01T03:59:52;1.10;99.90
23087;DHT22;11712;51.134;4.156;2023-03-01T04:02:17;1.20;99.90
23087;DHT22;11712;51.134;4.156;2023-03-01T04:04:50;1.20;99.90
23087;DHT22;11712;51.134;4.156;2023-03-01T04:07:18;1.20;99.90
23087;DHT22;11712;51.134;4.156;2023-03-01T04:09:44;1.10;99.90
23087;DHT22;11712;51.134;4.156;2023-03-01T04:12:10;1.10;99.90
23087;DHT22;11712;51.134;4.156;2023-03-01T04:14:36;1.10;99.90
23087;DHT22;11712;51.134;4.156;2023-03-01T04:17:02;1.10;99.90
23087;DHT22;11712;51.134;4.156;2023-03-01T04:19:31;1.10;99.90
23087;DHT22;11712;51.134;4.156;2023-03-01T04:22:04;1.10;99.90
23087;DHT22;11712;51.134;4.156;2023-03-01T04:24:34;1.10;99.90
23087;DHT22;11712;51.134;4.156;2023-03-01T04:27:00;1.10;99.90
23087;DHT22;11712;51.134;4.156;2023-03-01T04:29:26;1.10;99.90
23087;DHT22;11712;51.134;4.156;2023-03-01T04:31:51;1.00;99.90
23087;DHT22;11712;51.134;4.156;2023-03-01T04:34:18;1.00;99.90
23087;DHT22;11712;51.134;4.156;2023-03-01T04:36:44;1.00;99.90
23087;DHT22;11712;51.134;4.156;2023-03-01T04:39:09;1.00;99.90
23087;DHT22;11712;51.134;4.156;2023-03-01T04:41:39;1.00;99.90
23087;DHT22;11712;51.134;4.156;2023-03-01T04:44:05;1.10;99.90
23087;DHT22;11712;51.134;4.156;2023-03-01T04:46:31;1.00;99.90
23087;DHT22;11712;51.134;4.156;2023-03-01T04:48:57;1.10;99.90
23087;DHT22;11712;51.134;4.156;2023-03-01T04:51:22;1.00;99.90
23087;DHT22;11712;51.134;4.156;2023-03-01T04:53:48;1.10;99.90
23087;DHT22;11712;51.134;4.156;2023-03-01T04:56:14;1.00;99.90
23087;DHT22;11712;51.134;4.156;2023-03-01T04:58:40;1.00;99.90
23087;DHT22;11712;51.134;4.156;2023-03-01T05:01:17;0.80;99.90
23087;DHT22;11712;51.134;4.156;2023-03-01T05:03:48;0.80;99.90
23087;DHT22;11712;51.134;4.156;2023-03-01T05:06:15;0.70;99.90
23087;DHT22;11712;51.134;4.156;2023-03-01T05:08:41;0.80;99.90
23087;DHT22;11712;51.134;4.156;2023-03-01T05:11:08;0.90;99.90
23087;DHT22;11712;51.134;4.156;2023-03-01T05:13:35;0.80;99.90
23087;DHT22;11712;51.134;4.156;2023-03-01T05:16:03;0.80;99.90
23087;DHT22;11712;51.134;4.156;2023-03-01T05:18:32;0.90;99.90
23087;DHT22;11712;51.134;4.156;2023-03-01T05:21:05;0.90;99.90
23087;DHT22;11712;51.134;4.156;2023-03-01T05:23:31;0.90;99.90
23087;DHT22;11712;51.134;4.156;2023-03-01T05:25:58;1.00;99.90
23087;DHT22;11712;51.134;4.156;2023-03-01T05:28:26;0.90;99.90
23087;DHT22;11712;51.134;4.156;2023-03-01T05:30:52;0.90;99.90
23087;DHT22;11712;51.134;4.156;2023-03-01T05:33:17;0.90;99.90
23087;DHT22;11712;51.134;4.156;2023-03-01T05:35:44;0.90;99.90
23087;DHT22;11712;51.134;4.156;2023-03-01T05:38:12;0.90;99.90
23087;DHT22;11712;51.134;4.156;2023-03-01T05:40:44;0.90;99.90
23087;DHT22;11712;51.134;4.156;2023-03-01T05:43:12;0.90;99.90
23087;DHT22;11712;51.134;4.156;2023-03-01T05:47:06;1.00;99.90
23087;DHT22;11712;51.134;4.156;2023-03-01T05:49:32;0.90;99.90
23087;DHT22;11712;51.134;4.156;2023-03-01T05:51:57;0.80;99.90
23087;DHT22;11712;51.134;4.156;2023-03-01T05:54:23;0.80;99.90
23087;DHT22;11712;51.134;4.156;2023-03-01T05:56:48;0.80;99.90
23087;DHT22;11712;51.134;4.156;2023-03-01T05:59:14;0.60;99.90
23087;DHT22;11712;51.134;4.156;2023-03-01T06:01:42;0.40;99.90
23087;DHT22;11712;51.134;4.156;2023-03-01T06:04:07;0.20;99.90
23087;DHT22;11712;51.134;4.156;2023-03-01T06:06:34;0.10;99.90
23087;DHT22;11712;51.134;4.156;2023-03-01T06:09:03;0.00;99.90
23087;DHT22;11712;51.134;4.156;2023-03-01T06:11:29;-0.20;99.90
23087;DHT22;11712;51.134;4.156;2023-03-01T06:13:54;-0.20;99.90
23087;DHT22;11712;51.134;4.156;2023-03-01T06:16:20;-0.30;99.90
23087;DHT22;11712;51.134;4.156;2023-03-01T06:18:45;-0.30;99.90
23087;DHT22;11712;51.134;4.156;2023-03-01T06:21:11;-0.20;99.90
23087;DHT22;11712;51.134;4.156;2023-03-01T06:23:37;-0.10;99.90
23087;DHT22;11712;51.134;4.156;2023-03-01T06:26:07;-0.10;99.90
23087;DHT22;11712;51.134;4.156;2023-03-01T06:28:33;-0.10;99.90
23087;DHT22;11712;51.134;4.156;2023-03-01T06:30:59;-0.10;99.90
23087;DHT22;11712;51.134;4.156;2023-03-01T06:33:25;-0.10;99.90
23087;DHT22;11712;51.134;4.156;2023-03-01T06:35:51;-0.10;99.90
23087;DHT22;11712;51.134;4.156;2023-03-01T06:38:19;0.00;99.90
23087;DHT22;11712;51.134;4.156;2023-03-01T06:40:50;0.10;99.90
23087;DHT22;11712;51.134;4.156;2023-03-01T06:43:16;0.10;99.90
23087;DHT22;11712;51.134;4.156;2023-03-01T06:45:42;0.10;99.90
23087;DHT22;11712;51.134;4.156;2023-03-01T06:48:08;0.10;99.90
23087;DHT22;11712;51.134;4.156;2023-03-01T06:50:35;0.20;99.90
23087;DHT22;11712;51.134;4.156;2023-03-01T06:53:02;0.30;99.90
23087;DHT22;11712;51.134;4.156;2023-03-01T06:55:28;0.40;99.90
23087;DHT22;11712;51.134;4.156;2023-03-01T06:57:55;0.40;99.90
23087;DHT22;11712;51.134;4.156;2023-03-01T07:00:22;0.40;99.90
23087;DHT22;11712;51.134;4.156;2023-03-01T07:02:48;0.40;99.90
23087;DHT22;11712;51.134;4.156;2023-03-01T07:05:13;0.60;99.90
23087;DHT22;11712;51.134;4.156;2023-03-01T07:07:40;0.70;99.90
23087;DHT22;11712;51.134;4.156;2023-03-01T07:10:06;0.80;99.90
23087;DHT22;11712;51.134;4.156;2023-03-01T07:12:32;0.80;99.90
23087;DHT22;11712;51.134;4.156;2023-03-01T07:14:58;0.80;99.90
23087;DHT22;11712;51.134;4.156;2023-03-01T07:17:24;1.00;99.90
23087;DHT22;11712;51.134;4.156;2023-03-01T07:19:49;1.00;99.90
23087;DHT22;11712;51.134;4.156;2023-03-01T07:22:15;1.20;99.90
23087;DHT22;11712;51.134;4.156;2023-03-01T07:24:42;1.30;99.90
23087;DHT22;11712;51.134;4.156;2023-03-01T07:27:07;1.40;99.90
23087;DHT22;11712;51.134;4.156;2023-03-01T07:29:33;1.60;99.90
23087;DHT22;11712;51.134;4.156;2023-03-01T07:32:02;1.50;99.90
23087;DHT22;11712;51.134;4.156;2023-03-01T07:34:28;1.40;99.90
23087;DHT22;11712;51.134;4.156;2023-03-01T07:36:54;1.40;99.90
23087;DHT22;11712;51.134;4.156;2023-03-01T07:39:19;1.40;99.90
23087;DHT22;11712;51.134;4.156;2023-03-01T07:41:45;1.50;99.90
23087;DHT22;11712;51.134;4.156;2023-03-01T07:44:11;1.50;99.90
23087;DHT22;11712;51.134;4.156;2023-03-01T07:46:36;1.60;99.90
23087;DHT22;11712;51.134;4.156;2023-03-01T07:49:02;1.70;99.90
23087;DHT22;11712;51.134;4.156;2023-03-01T07:51:28;1.70;99.90
23087;DHT22;11712;51.134;4.156;2023-03-01T07:53:54;1.80;99.90
23087;DHT22;11712;51.134;4.156;2023-03-01T07:56:19;1.80;99.90
23087;DHT22;11712;51.134;4.156;2023-03-01T07:58:46;1.90;99.90
23087;DHT22;11712;51.134;4.156;2023-03-01T08:01:15;1.90;99.90
23087;DHT22;11712;51.134;4.156;2023-03-01T08:03:41;1.90;99.90
23087;DHT22;11712;51.134;4.156;2023-03-01T08:07:04;2.00;99.90
23087;DHT22;11712;51.134;4.156;2023-03-01T08:09:30;2.10;99.90
23087;DHT22;11712;51.134;4.156;2023-03-01T08:11:57;2.20;99.90
23087;DHT22;11712;51.134;4.156;2023-03-01T08:14:25;2.20;99.90
23087;DHT22;11712;51.134;4.156;2023-03-01T08:16:51;2.10;99.90
23087;DHT22;11712;51.134;4.156;2023-03-01T08:19:17;2.20;99.90
23087;DHT22;11712;51.134;4.156;2023-03-01T08:21:42;2.20;99.90
23087;DHT22;11712;51.134;4.156;2023-03-01T08:24:08;2.30;99.90
23087;DHT22;11712;51.134;4.156;2023-03-01T08:26:36;2.30;99.90
23087;DHT22;11712;51.134;4.156;2023-03-01T08:29:02;2.40;99.90
23087;DHT22;11712;51.134;4.156;2023-03-01T08:31:31;2.50;99.90
23087;DHT22;11712;51.134;4.156;2023-03-01T08:33:59;2.50;99.90
23087;DHT22;11712;51.134;4.156;2023-03-01T08:36:27;2.50;99.90
23087;DHT22;11712;51.134;4.156;2023-03-01T08:38:53;2.50;99.90
23087;DHT22;11712;51.134;4.156;2023-03-01T08:41:20;2.60;99.90
23087;DHT22;11712;51.134;4.156;2023-03-01T08:43:46;2.70;99.90
23087;DHT22;11712;51.134;4.156;2023-03-01T08:46:12;2.90;99.90
23087;DHT22;11712;51.134;4.156;2023-03-01T08:48:38;3.00;99.90
23087;DHT22;11712;51.134;4.156;2023-03-01T08:51:16;3.10;99.90
23087;DHT22;11712;51.134;4.156;2023-03-01T08:53:42;3.10;99.90
23087;DHT22;11712;51.134;4.156;2023-03-01T08:56:09;3.00;99.90
23087;DHT22;11712;51.134;4.156;2023-03-01T08:58:35;3.00;99.90
23087;DHT22;11712;51.134;4.156;2023-03-01T09:01:06;3.00;99.90
23087;DHT22;11712;51.134;4.156;2023-03-01T09:03:31;2.90;99.90
23087;DHT22;11712;51.134;4.156;2023-03-01T09:06:00;3.00;99.90
23087;DHT22;11712;51.134;4.156;2023-03-01T09:08:27;3.10;99.90
23087;DHT22;11712;51.134;4.156;2023-03-01T09:10:52;3.20;99.90
23087;DHT22;11712;51.134;4.156;2023-03-01T09:13:18;3.40;99.90
23087;DHT22;11712;51.134;4.156;2023-03-01T09:15:44;3.40;99.90
23087;DHT22;11712;51.134;4.156;2023-03-01T09:18:09;3.40;99.90
23087;DHT22;11712;51.134;4.156;2023-03-01T09:20:35;3.40;99.90
23087;DHT22;11712;51.134;4.156;2023-03-01T09:23:16;3.40;99.90
23087;DHT22;11712;51.134;4.156;2023-03-01T09:25:41;3.40;99.90
23087;DHT22;11712;51.134;4.156;2023-03-01T09:28:07;3.40;99.90
23087;DHT22;11712;51.134;4.156;2023-03-01T09:30:33;3.40;99.90
23087;DHT22;11712;51.134;4.156;2023-03-01T09:32:58;3.50;99.90
23087;DHT22;11712;51.134;4.156;2023-03-01T09:35:24;3.60;99.90
23087;DHT22;11712;51.134;4.156;2023-03-01T09:37:50;3.60;99.90
23087;DHT22;11712;51.134;4.156;2023-03-01T09:40:19;3.70;99.90
23087;DHT22;11712;51.134;4.156;2023-03-01T09:42:54;3.70;99.90
23087;DHT22;11712;51.134;4.156;2023-03-01T09:45:34;3.80;99.90
23087;DHT22;11712;51.134;4.156;2023-03-01T09:48:02;4.00;99.90
23087;DHT22;11712;51.134;4.156;2023-03-01T09:50:35;4.10;99.90
23087;DHT22;11712;51.134;4.156;2023-03-01T09:53:10;4.10;99.90
23087;DHT22;11712;51.134;4.156;2023-03-01T09:58:53;4.20;99.90
23087;DHT22;11712;51.134;4.156;2023-03-01T10:01:35;4.40;99.90
23087;DHT22;11712;51.134;4.156;2023-03-01T10:06:41;4.30;99.90
23087;DHT22;11712;51.134;4.156;2023-03-01T10:09:14;4.30;99.90
23087;DHT22;11712;51.134;4.156;2023-03-01T10:11:52;4.30;99.90
23087;DHT22;11712;51.134;4.156;2023-03-01T10:14:38;4.50;99.90
23087;DHT22;11712;51.134;4.156;2023-03-01T10:19:43;4.60;99.90
23087;DHT22;11712;51.134;4.156;2023-03-01T10:23:09;4.70;99.90
23087;DHT22;11712;51.134;4.156;2023-03-01T10:28:20;4.70;99.90
23087;DHT22;11712;51.134;4.156;2023-03-01T10:30:50;4.80;99.90
23087;DHT22;11712;51.134;4.156;2023-03-01T10:33:29;4.70;99.90
23087;DHT22;11712;51.134;4.156;2023-03-01T10:35:56;4.70;99.90
23087;DHT22;11712;51.134;4.156;2023-03-01T10:38:22;5.00;99.90
23087;DHT22;11712;51.134;4.156;2023-03-01T10:40:56;5.10;99.90
23087;DHT22;11712;51.134;4.156;2023-03-01T10:43:40;5.30;99.90
23087;DHT22;11712;51.134;4.156;2023-03-01T10:51:46;5.30;99.90
23087;DHT22;11712;51.134;4.156;2023-03-01T10:54:30;5.20;99.90
23087;DHT22;11712;51.134;4.156;2023-03-01T10:57:09;5.20;99.90
23087;DHT22;11712;51.134;4.156;2023-03-01T10:59:43;5.20;99.90
23087;DHT22;11712;51.134;4.156;2023-03-01T11:04:59;5.20;99.90
23087;DHT22;11712;51.134;4.156;2023-03-01T11:07:25;5.40;99.90
23087;DHT22;11712;51.134;4.156;2023-03-01T11:09:51;5.40;99.90
23087;DHT22;11712;51.134;4.156;2023-03-01T11:12:17;5.50;99.90
23087;DHT22;11712;51.134;4.156;2023-03-01T11:14:56;5.50;99.90
23087;DHT22;11712;51.134;4.156;2023-03-01T11:17:29;5.30;99.90
23087;DHT22;11712;51.134;4.156;2023-03-01T11:22:52;5.40;99.90
23087;DHT22;11712;51.134;4.156;2023-03-01T11:25:23;5.40;99.90
23087;DHT22;11712;51.134;4.156;2023-03-01T11:27:49;5.40;99.90
23087;DHT22;11712;51.134;4.156;2023-03-01T11:30:26;5.50;99.90
23087;DHT22;11712;51.134;4.156;2023-03-01T11:33:11;5.40;99.90
23087;DHT22;11712;51.134;4.156;2023-03-01T11:35:45;5.60;99.90
23087;DHT22;11712;51.134;4.156;2023-03-01T11:38:28;5.60;99.90
23087;DHT22;11712;51.134;4.156;2023-03-01T11:41:47;5.60;99.90
23087;DHT22;11712;51.134;4.156;2023-03-01T12:11:12;6.00;99.90
23087;DHT22;11712;51.134;4.156;2023-03-01T12:17:44;6.40;99.90
23087;DHT22;11712;51.134;4.156;2023-03-01T12:25:14;6.10;99.90
23087;DHT22;11712;51.134;4.156;2023-03-01T12:31:35;6.20;99.90
23087;DHT22;11712;51.134;4.156;2023-03-01T12:39:41;6.60;99.90
23087;DHT22;11712;51.134;4.156;2023-03-01T12:45:32;6.70;99.90
23087;DHT22;11712;51.134;4.156;2023-03-01T12:48:31;6.80;99.90
23087;DHT22;11712;51.134;4.156;2023-03-01T12:51:02;6.80;99.90
23087;DHT22;11712;51.134;4.156;2023-03-01T12:53:34;6.80;99.90
23087;DHT22;11712;51.134;4.156;2023-03-01T12:56:13;6.70;99.90
23087;DHT22;11712;51.134;4.156;2023-03-01T13:17:57;6.90;99.90
23087;DHT22;11712;51.134;4.156;2023-03-01T13:20:46;6.90;99.90
23087;DHT22;11712;51.134;4.156;2023-03-01T13:31:00;7.00;99.90
23087;DHT22;11712;51.134;4.156;2023-03-01T13:33:33;7.00;99.90
23087;DHT22;11712;51.134;4.156;2023-03-01T13:35:59;7.00;99.90
23087;DHT22;11712;51.134;4.156;2023-03-01T13:41:07;7.10;99.90
23087;DHT22;11712;51.134;4.156;2023-03-01T13:43:35;7.00;99.90
23087;DHT22;11712;51.134;4.156;2023-03-01T13:46:08;7.00;99.90
23087;DHT22;11712;51.134;4.156;2023-03-01T13:48:37;7.10;99.90
23087;DHT22;11712;51.134;4.156;2023-03-01T13:51:11;7.00;99.90
23087;DHT22;11712;51.134;4.156;2023-03-01T13:53:44;7.10;99.90
23087;DHT22;11712;51.134;4.156;2023-03-01T13:56:15;7.10;99.90
23087;DHT22;11712;51.134;4.156;2023-03-01T14:01:34;7.20;99.90
23087;DHT22;11712;51.134;4.156;2023-03-01T14:04:02;7.20;99.90
23087;DHT22;11712;51.134;4.156;2023-03-01T14:06:30;7.20;99.90
23087;DHT22;11712;51.134;4.156;2023-03-01T14:09:19;7.10;99.90
23087;DHT22;11712;51.134;4.156;2023-03-01T14:19:36;7.40;99.90
23087;DHT22;11712;51.134;4.156;2023-03-01T14:22:24;7.40;99.90
23087;DHT22;11712;51.134;4.156;2023-03-01T14:25:02;7.40;99.90
23087;DHT22;11712;51.134;4.156;2023-03-01T14:27:33;7.60;99.90
23087;DHT22;11712;51.134;4.156;2023-03-01T14:30:04;7.50;99.90
23087;DHT22;11712;51.134;4.156;2023-03-01T14:32:35;7.40;99.90
23087;DHT22;11712;51.134;4.156;2023-03-01T14:35:01;7.50;99.90
23087;DHT22;11712;51.134;4.156;2023-03-01T14:39:53;7.40;99.90
23087;DHT22;11712;51.134;4.156;2023-03-01T14:42:22;7.50;99.90
23087;DHT22;11712;51.134;4.156;2023-03-01T14:44:50;7.60;99.90
23087;DHT22;11712;51.134;4.156;2023-03-01T14:47:28;7.50;99.90
23087;DHT22;11712;51.134;4.156;2023-03-01T14:50:02;7.40;99.90
23087;DHT22;11712;51.134;4.156;2023-03-01T14:52:37;7.40;99.90
23087;DHT22;11712;51.134;4.156;2023-03-01T14:55:06;7.40;99.90
23087;DHT22;11712;51.134;4.156;2023-03-01T14:57:32;7.40;99.90
23087;DHT22;11712;51.134;4.156;2023-03-01T15:00:01;7.60;99.90
23087;DHT22;11712;51.134;4.156;2023-03-01T15:02:31;7.70;99.90
23087;DHT22;11712;51.134;4.156;2023-03-01T15:05:00;7.70;99.90
23087;DHT22;11712;51.134;4.156;2023-03-01T15:07:30;7.80;99.90
23087;DHT22;11712;51.134;4.156;2023-03-01T15:09:57;7.70;99.90
23087;DHT22;11712;51.134;4.156;2023-03-01T15:12:34;7.70;99.90
23087;DHT22;11712;51.134;4.156;2023-03-01T15:15:00;7.80;99.90
23087;DHT22;11712;51.134;4.156;2023-03-01T15:17:37;7.80;99.90
23087;DHT22;11712;51.134;4.156;2023-03-01T15:20:17;8.00;99.90
23087;DHT22;11712;51.134;4.156;2023-03-01T15:22:44;7.70;99.90
23087;DHT22;11712;51.134;4.156;2023-03-01T15:25:17;7.60;99.90
23087;DHT22;11712;51.134;4.156;2023-03-01T15:27:48;7.60;99.90
23087;DHT22;11712;51.134;4.156;2023-03-01T15:30:21;7.70;99.90
23087;DHT22;11712;51.134;4.156;2023-03-01T15:32:48;7.90;99.90
23087;DHT22;11712;51.134;4.156;2023-03-01T15:35:34;8.00;99.90
23087;DHT22;11712;51.134;4.156;2023-03-01T15:38:00;8.10;99.90
23087;DHT22;11712;51.134;4.156;2023-03-01T15:40:28;8.00;99.90
23087;DHT22;11712;51.134;4.156;2023-03-01T15:45:26;8.40;99.90
23087;DHT22;11712;51.134;4.156;2023-03-01T15:47:57;8.40;99.90
23087;DHT22;11712;51.134;4.156;2023-03-01T15:50:29;8.50;99.90
23087;DHT22;11712;51.134;4.156;2023-03-01T15:52:59;8.50;99.90
23087;DHT22;11712;51.134;4.156;2023-03-01T15:55:30;8.40;99.90
23087;DHT22;11712;51.134;4.156;2023-03-01T15:57:59;8.50;99.90
23087;DHT22;11712;51.134;4.156;2023-03-01T16:00:26;8.60;99.90
23087;DHT22;11712;51.134;4.156;2023-03-01T16:02:52;8.50;99.90
23087;DHT22;11712;51.134;4.156;2023-03-01T16:05:29;8.20;99.90
23087;DHT22;11712;51.134;4.156;2023-03-01T16:07:56;8.10;99.90
23087;DHT22;11712;51.134;4.156;2023-03-01T16:10:23;8.10;99.90
23087;DHT22;11712;51.134;4.156;2023-03-01T16:12:50;8.30;99.90
23087;DHT22;11712;51.134;4.156;2023-03-01T16:15:22;8.30;99.90
23087;DHT22;11712;51.134;4.156;2023-03-01T16:17:48;8.30;99.90
23087;DHT22;11712;51.134;4.156;2023-03-01T16:20:14;8.20;99.90
23087;DHT22;11712;51.134;4.156;2023-03-01T16:22:42;8.10;99.90
23087;DHT22;11712;51.134;4.156;2023-03-01T16:25:10;8.10;99.90
23087;DHT22;11712;51.134;4.156;2023-03-01T16:27:35;8.10;99.90
23087;DHT22;11712;51.134;4.156;2023-03-01T16:30:01;7.90;99.90
23087;DHT22;11712;51.134;4.156;2023-03-01T16:32:27;7.70;99.90
23087;DHT22;11712;51.134;4.156;2023-03-01T16:34:53;7.70;99.90
23087;DHT22;11712;51.134;4.156;2023-03-01T16:37:18;7.80;99.90
23087;DHT22;11712;51.134;4.156;2023-03-01T16:39:44;7.90;99.90
23087;DHT22;11712;51.134;4.156;2023-03-01T16:42:10;7.80;99.90
23087;DHT22;11712;51.134;4.156;2023-03-01T16:44:35;7.60;99.90
23087;DHT22;11712;51.134;4.156;2023-03-01T16:47:01;7.50;99.90
23087;DHT22;11712;51.134;4.156;2023-03-01T16:51:11;7.30;99.90
23087;DHT22;11712;51.134;4.156;2023-03-01T16:53:37;7.20;99.90
23087;DHT22;11712;51.134;4.156;2023-03-01T16:56:05;7.10;99.90
23087;DHT22;11712;51.134;4.156;2023-03-01T16:58:32;7.00;99.90
23087;DHT22;11712;51.134;4.156;2023-03-01T17:01:04;6.90;99.90
23087;DHT22;11712;51.134;4.156;2023-03-01T17:03:30;6.70;99.90
23087;DHT22;11712;51.134;4.156;2023-03-01T17:05:56;6.70;99.90
23087;DHT22;11712;51.134;4.156;2023-03-01T17:08:22;6.70;99.90
23087;DHT22;11712;51.134;4.156;2023-03-01T17:10:47;6.60;99.90
23087;DHT22;11712;51.134;4.156;2023-03-01T17:13:13;6.50;99.90
23087;DHT22;11712;51.134;4.156;2023-03-01T17:15:42;6.40;99.90
23087;DHT22;11712;51.134;4.156;2023-03-01T17:18:08;6.40;99.90
23087;DHT22;11712;51.134;4.156;2023-03-01T17:20:35;6.40;99.90
23087;DHT22;11712;51.134;4.156;2023-03-01T17:23:01;6.30;99.90
23087;DHT22;11712;51.134;4.156;2023-03-01T17:25:27;6.20;99.90
23087;DHT22;11712;51.134;4.156;2023-03-01T17:27:53;6.10;99.90
23087;DHT22;11712;51.134;4.156;2023-03-01T17:30:19;6.10;99.90
23087;DHT22;11712;51.134;4.156;2023-03-01T17:32:44;6.00;99.90
23087;DHT22;11712;51.134;4.156;2023-03-01T17:35:10;6.00;99.90
23087;DHT22;11712;51.134;4.156;2023-03-01T17:37:37;5.80;99.90
23087;DHT22;11712;51.134;4.156;2023-03-01T17:40:05;5.70;99.90
23087;DHT22;11712;51.134;4.156;2023-03-01T17:42:31;5.70;99.90
23087;DHT22;11712;51.134;4.156;2023-03-01T17:44:57;5.70;99.90
23087;DHT22;11712;51.134;4.156;2023-03-01T17:47:23;5.60;99.90
23087;DHT22;11712;51.134;4.156;2023-03-01T17:49:48;5.60;99.90
23087;DHT22;11712;51.134;4.156;2023-03-01T17:52:14;5.60;99.90
23087;DHT22;11712;51.134;4.156;2023-03-01T17:54:40;5.60;99.90
23087;DHT22;11712;51.134;4.156;2023-03-01T17:57:06;5.60;99.90
23087;DHT22;11712;51.134;4.156;2023-03-01T17:59:31;5.60;99.90
23087;DHT22;11712;51.134;4.156;2023-03-01T18:02:00;5.50;99.90
23087;DHT22;11712;51.134;4.156;2023-03-01T18:04:27;5.50;99.90
23087;DHT22;11712;51.134;4.156;2023-03-01T18:06:53;5.30;99.90
23087;DHT22;11712;51.134;4.156;2023-03-01T18:09:18;5.30;99.90